sensor_id;sensor_type;location;lat;lon;timestamp;temperature;humidity
29765;DHT22;16667;-33.884;151.182;2022-08-11T00:00:12;13.10;99.90
29765;DHT22;16667;-33.884;151.182;2022-08-11T00:02:45;13.10;99.90
29765;DHT22;16667;-33.884;151.182;2022-08-11T00:05:18;13.20;99.90
29765;DHT22;16667;-33.884;151.182;2022-08-11T00:07:53;13.20;99.90
29765;DHT22;16667;-33.884;151.182;2022-08-11T00:10:27;13.30;99.90
29765;DHT22;16667;-33.884;151.182;2022-08-11T00:13:00;13.40;99.90
29765;DHT22;16667;-33.884;151.182;2022-08-11T00:15:40;13.40;99.90
29765;DHT22;16667;-33.884;151.182;2022-08-11T00:18:12;13.50;99.90
29765;DHT22;16667;-33.884;151.182;2022-08-11T00:20:44;13.60;99.90
29765;DHT22;16667;-33.884;151.182;2022-08-11T00:23:18;13.60;99.90
29765;DHT22;16667;-33.884;151.182;2022-08-11T00:25:52;13.70;99.90
29765;DHT22;16667;-33.884;151.182;2022-08-11T00:28:27;13.80;99.90
29765;DHT22;16667;-33.884;151.182;2022-08-11T00:31:02;13.90;99.90
29765;DHT22;16667;-33.884;151.182;2022-08-11T00:33:38;14.00;99.90
29765;DHT22;16667;-33.884;151.182;2022-08-11T00:36:12;14.00;99.90
29765;DHT22;16667;-33.884;151.182;2022-08-11T00:38:50;14.10;99.90
29765;DHT22;16667;-33.884;151.182;2022-08-11T00:41:31;14.20;99.90
29765;DHT22;16667;-33.884;151.182;2022-08-11T00:44:27;14.20;99.90
29765;DHT22;16667;-33.884;151.182;2022-08-11T00:47:09;14.20;99.90
29765;DHT22;16667;-33.884;151.182;2022-08-11T00:49:53;14.20;99.90
29765;DHT22;16667;-33.884;151.182;2022-08-11T00:52:43;14.30;99.90
29765;DHT22;16667;-33.884;151.182;2022-08-11T00:58:46;14.90;99.90
29765;DHT22;16667;-33.884;151.182;2022-08-11T01:01:38;14.30;99.90
29765;DHT22;16667;-33.884;151.182;2022-08-11T01:07:37;14.30;99.90
29765;DHT22;16667;-33.884;151.182;2022-08-11T01:10:55;14.30;99.90
29765;DHT22;16667;-33.884;151.182;2022-08-11T01:20:14;14.60;99.90
29765;DHT22;16667;-33.884;151.182;2022-08-11T01:35:35;14.60;99.90
29765;DHT22;16667;-33.884;151.182;2022-08-11T01:41:30;14.70;99.90
29765;DHT22;16667;-33.884;151.182;2022-08-11T01:47:25;15.00;99.90
29765;DHT22;16667;-33.884;151.182;2022-08-11T01:50:20;15.30;99.90
29765;DHT22;16667;-33.884;151.182;2022-08-11T01:53:20;15.60;99.90
29765;DHT22;16667;-33.884;151.182;2022-08-11T01:56:04;15.80;99.90
29765;DHT22;16667;-33.884;151.182;2022-08-11T01:58:43;15.90;99.90
29765;DHT22;16667;-33.884;151.182;2022-08-11T02:01:31;16.10;99.90
29765;DHT22;16667;-33.884;151.182;2022-08-11T02:04:17;16.10;99.90
29765;DHT22;16667;-33.884;151.182;2022-08-11T02:07:01;16.00;99.90
29765;DHT22;16667;-33.884;151.182;2022-08-11T02:09:46;15.90;99.90
29765;DHT22;16667;-33.884;151.182;2022-08-11T02:12:38;15.90;99.90
29765;DHT22;16667;-33.884;151.182;2022-08-11T02:15:23;16.00;99.90
29765;DHT22;16667;-33.884;151.182;2022-08-11T02:18:04;16.10;99.90
29765;DHT22;16667;-33.884;151.182;2022-08-11T02:20:41;16.30;99.90
29765;DHT22;16667;-33.884;151.182;2022-08-11T02:23:34;16.60;99.90
29765;DHT22;16667;-33.884;151.182;2022-08-11T02:26:22;16.70;99.90
29765;DHT22;16667;-33.884;151.182;2022-08-11T02:29:08;16.70;99.90
29765;DHT22;16667;-33.884;151.182;2022-08-11T02:31:52;16.60;99.90
29765;DHT22;16667;-33.884;151.182;2022-08-11T02:34:46;16.50;99.90
29765;DHT22;16667;-33.884;151.182;2022-08-11T02:37:31;16.50;99.90
29765;DHT22;16667;-33.884;151.182;2022-08-11T02:40:15;16.40;99.90
29765;DHT22;16667;-33.884;151.182;2022-08-11T02:42:58;16.40;99.90
29765;DHT22;16667;-33.884;151.182;2022-08-11T02:45:40;16.30;99.90
29765;DHT22;16667;-33.884;151.182;2022-08-11T02:48:26;16.20;99.90
29765;DHT22;16667;-33.884;151.182;2022-08-11T02:51:26;16.20;99.90
29765;DHT22;16667;-33.884;151.182;2022-08-11T02:54:06;16.30;99.90
29765;DHT22;16667;-33.884;151.182;2022-08-11T02:56:45;16.40;99.90
29765;DHT22;16667;-33.884;151.182;2022-08-11T02:59:35;16.60;99.90
29765;DHT22;16667;-33.884;151.182;2022-08-11T03:02:32;16.80;99.90
29765;DHT22;16667;-33.884;151.182;2022-08-11T03:05:26;17.00;99.90
29765;DHT22;16667;-33.884;151.182;2022-08-11T03:08:21;16.90;99.90
29765;DHT22;16667;-33.884;151.182;2022-08-11T03:11:00;16.90;99.90
29765;DHT22;16667;-33.884;151.182;2022-08-11T03:14:05;16.90;99.90
29765;DHT22;16667;-33.884;151.182;2022-08-11T03:17:02;16.90;99.90
29765;DHT22;16667;-33.884;151.182;2022-08-11T03:19:43;16.90;99.90
29765;DHT22;16667;-33.884;151.182;2022-08-11T03:22:22;17.00;99.90
29765;DHT22;16667;-33.884;151.182;2022-08-11T03:25:02;17.20;99.90
29765;DHT22;16667;-33.884;151.182;2022-08-11T03:27:47;17.20;99.90
29765;DHT22;16667;-33.884;151.182;2022-08-11T03:30:24;17.20;99.90
29765;DHT22;16667;-33.884;151.182;2022-08-11T03:33:11;17.20;99.90
29765;DHT22;16667;-33.884;151.182;2022-08-11T03:36:08;17.20;99.90
29765;DHT22;16667;-33.884;151.182;2022-08-11T03:38:52;17.30;99.90
29765;DHT22;16667;-33.884;151.182;2022-08-11T03:41:34;17.40;99.90
29765;DHT22;16667;-33.884;151.182;2022-08-11T03:44:33;17.40;99.90
29765;DHT22;16667;-33.884;151.182;2022-08-11T03:47:22;17.40;99.90
29765;DHT22;16667;-33.884;151.182;2022-08-11T03:50:11;17.50;99.90
29765;DHT22;16667;-33.884;151.182;2022-08-11T03:53:08;17.60;99.90
29765;DHT22;16667;-33.884;151.182;2022-08-11T03:56:05;17.60;99.90
29765;DHT22;16667;-33.884;151.182;2022-08-11T03:59:17;17.50;99.90
29765;DHT22;16667;-33.884;151.182;2022-08-11T04:14:46;17.10;99.90
29765;DHT22;16667;-33.884;151.182;2022-08-11T04:18:15;17.00;99.90
29765;DHT22;16667;-33.884;151.182;2022-08-11T04:21:09;16.90;99.90
29765;DHT22;16667;-33.884;151.182;2022-08-11T04:24:08;16.80;99.90
29765;DHT22;16667;-33.884;151.182;2022-08-11T04:27:11;16.80;99.90
29765;DHT22;16667;-33.884;151.182;2022-08-11T04:30:00;16.80;99.90
29765;DHT22;16667;-33.884;151.182;2022-08-11T04:35:54;16.60;99.90
29765;DHT22;16667;-33.884;151.182;2022-08-11T04:38:52;16.50;99.90
29765;DHT22;16667;-33.884;151.182;2022-08-11T04:42:06;16.40;99.90
29765;DHT22;16667;-33.884;151.182;2022-08-11T04:45:28;16.40;99.90
29765;DHT22;16667;-33.884;151.182;2022-08-11T04:48:37;16.40;99.90
29765;DHT22;16667;-33.884;151.182;2022-08-11T04:51:43;16.40;99.90
29765;DHT22;16667;-33.884;151.182;2022-08-11T04:54:45;16.30;99.90
29765;DHT22;16667;-33.884;151.182;2022-08-11T04:57:49;16.20;99.90
29765;DHT22;16667;-33.884;151.182;2022-08-11T05:00:55;16.10;99.90
29765;DHT22;16667;-33.884;151.182;2022-08-11T05:04:19;16.10;99.90
29765;DHT22;16667;-33.884;151.182;2022-08-11T05:07:44;16.10;99.90
29765;DHT22;16667;-33.884;151.182;2022-08-11T05:10:27;16.10;99.90
29765;DHT22;16667;-33.884;151.182;2022-08-11T05:13:06;16.10;99.90
29765;DHT22;16667;-33.884;151.182;2022-08-11T05:15:52;16.00;99.90
29765;DHT22;16667;-33.884;151.182;2022-08-11T05:18:46;16.00;99.90
29765;DHT22;16667;-33.884;151.182;2022-08-11T05:21:34;16.00;99.90
29765;DHT22;16667;-33.884;151.182;2022-08-11T05:24:23;16.00;99.90
29765;DHT22;16667;-33.884;151.182;2022-08-11T05:27:11;15.90;99.90
29765;DHT22;16667;-33.884;151.182;2022-08-11T05:30:04;16.00;99.90
29765;DHT22;16667;-33.884;151.182;2022-08-11T05:32:57;15.90;99.90
29765;DHT22;16667;-33.884;151.182;2022-08-11T05:35:45;15.90;99.90
29765;DHT22;16667;-33.884;151.182;2022-08-11T05:38:20;15.90;99.90
29765;DHT22;16667;-33.884;151.182;2022-08-11T05:41:14;15.90;99.90
29765;DHT22;16667;-33.884;151.182;2022-08-11T05:44:05;15.90;99.90
29765;DHT22;16667;-33.884;151.182;2022-08-11T05:46:54;15.80;99.90
29765;DHT22;16667;-33.884;151.182;2022-08-11T05:49:48;15.80;99.90
29765;DHT22;16667;-33.884;151.182;2022-08-11T05:52:35;15.70;99.90
29765;DHT22;16667;-33.884;151.182;2022-08-11T05:55:23;15.70;99.90
29765;DHT22;16667;-33.884;151.182;2022-08-11T05:58:11;15.70;99.90
29765;DHT22;16667;-33.884;151.182;2022-08-11T06:00:46;15.70;99.90
29765;DHT22;16667;-33.884;151.182;2022-08-11T06:03:26;15.70;99.90
29765;DHT22;16667;-33.884;151.182;2022-08-11T06:05:58;15.70;99.90
29765;DHT22;16667;-33.884;151.182;2022-08-11T06:08:31;15.70;99.90
29765;DHT22;16667;-33.884;151.182;2022-08-11T06:11:04;15.70;99.90
29765;DHT22;16667;-33.884;151.182;2022-08-11T06:13:35;15.70;99.90
29765;DHT22;16667;-33.884;151.182;2022-08-11T06:16:13;15.70;99.90
29765;DHT22;16667;-33.884;151.182;2022-08-11T06:18:53;15.60;99.90
29765;DHT22;16667;-33.884;151.182;2022-08-11T06:21:24;15.60;99.90
29765;DHT22;16667;-33.884;151.182;2022-08-11T06:23:56;15.50;99.90
29765;DHT22;16667;-33.884;151.182;2022-08-11T06:26:28;15.50;99.90
29765;DHT22;16667;-33.884;151.182;2022-08-11T06:28:59;15.50;99.90
29765;DHT22;16667;-33.884;151.182;2022-08-11T06:31:30;15.50;99.90
29765;DHT22;16667;-33.884;151.182;2022-08-11T06:34:10;15.40;99.90
29765;DHT22;16667;-33.884;151.182;2022-08-11T06:36:47;15.40;99.90
29765;DHT22;16667;-33.884;151.182;2022-08-11T06:39:24;15.30;99.90
29765;DHT22;16667;-33.884;151.182;2022-08-11T06:42:02;15.30;99.90
29765;DHT22;16667;-33.884;151.182;2022-08-11T06:44:41;15.30;99.90
29765;DHT22;16667;-33.884;151.182;2022-08-11T06:47:13;15.20;99.90
29765;DHT22;16667;-33.884;151.182;2022-08-11T06:49:49;15.20;99.90
29765;DHT22;16667;-33.884;151.182;2022-08-11T06:52:37;15.20;99.90
29765;DHT22;16667;-33.884;151.182;2022-08-11T06:55:12;15.20;99.90
29765;DHT22;16667;-33.884;151.182;2022-08-11T06:58:04;15.10;99.90
29765;DHT22;16667;-33.884;151.182;2022-08-11T07:00:54;15.10;99.90
29765;DHT22;16667;-33.884;151.182;2022-08-11T07:03:29;15.00;99.90
29765;DHT22;16667;-33.884;151.182;2022-08-11T07:06:12;15.00;99.90
29765;DHT22;16667;-33.884;151.182;2022-08-11T07:09:12;15.00;99.90
29765;DHT22;16667;-33.884;151.182;2022-08-11T07:12:15;15.00;99.90
29765;DHT22;16667;-33.884;151.182;2022-08-11T07:15:09;14.90;99.90
29765;DHT22;16667;-33.884;151.182;2022-08-11T07:17:59;14.90;99.90
29765;DHT22;16667;-33.884;151.182;2022-08-11T07:20:47;14.90;99.90
29765;DHT22;16667;-33.884;151.182;2022-08-11T07:23:37;14.90;99.90
29765;DHT22;16667;-33.884;151.182;2022-08-11T07:26:25;14.90;99.90
29765;DHT22;16667;-33.884;151.182;2022-08-11T07:29:15;14.90;99.90
29765;DHT22;16667;-33.884;151.182;2022-08-11T07:31:50;14.80;99.90
29765;DHT22;16667;-33.884;151.182;2022-08-11T07:34:26;14.80;99.90
29765;DHT22;16667;-33.884;151.182;2022-08-11T07:36:59;14.90;99.90
29765;DHT22;16667;-33.884;151.182;2022-08-11T07:39:35;14.80;99.90
29765;DHT22;16667;-33.884;151.182;2022-08-11T07:42:07;14.80;99.90
29765;DHT22;16667;-33.884;151.182;2022-08-11T07:44:41;14.80;99.90
29765;DHT22;16667;-33.884;151.182;2022-08-11T07:47:25;14.80;99.90
29765;DHT22;16667;-33.884;151.182;2022-08-11T07:50:12;14.80;99.90
29765;DHT22;16667;-33.884;151.182;2022-08-11T07:53:00;14.80;99.90
29765;DHT22;16667;-33.884;151.182;2022-08-11T07:55:34;14.80;99.90
29765;DHT22;16667;-33.884;151.182;2022-08-11T07:58:06;14.80;99.90
29765;DHT22;16667;-33.884;151.182;2022-08-11T08:00:53;14.80;99.90
29765;DHT22;16667;-33.884;151.182;2022-08-11T08:03:41;14.80;99.90
29765;DHT22;16667;-33.884;151.182;2022-08-11T08:06:29;14.80;99.90
29765;DHT22;16667;-33.884;151.182;2022-08-11T08:09:19;14.80;99.90
29765;DHT22;16667;-33.884;151.182;2022-08-11T08:12:08;14.80;99.90
29765;DHT22;16667;-33.884;151.182;2022-08-11T08:14:56;14.80;99.90
29765;DHT22;16667;-33.884;151.182;2022-08-11T08:17:43;14.80;99.90
29765;DHT22;16667;-33.884;151.182;2022-08-11T08:20:31;14.70;99.90
29765;DHT22;16667;-33.884;151.182;2022-08-11T08:23:03;14.70;99.90
29765;DHT22;16667;-33.884;151.182;2022-08-11T08:25:36;14.70;99.90
29765;DHT22;16667;-33.884;151.182;2022-08-11T08:28:11;14.70;99.90
29765;DHT22;16667;-33.884;151.182;2022-08-11T08:30:42;14.70;99.90
29765;DHT22;16667;-33.884;151.182;2022-08-11T08:33:19;14.60;99.90
29765;DHT22;16667;-33.884;151.182;2022-08-11T08:35:52;14.60;99.90
29765;DHT22;16667;-33.884;151.182;2022-08-11T08:38:39;14.60;99.90
29765;DHT22;16667;-33.884;151.182;2022-08-11T08:41:11;14.60;99.90
29765;DHT22;16667;-33.884;151.182;2022-08-11T08:43:45;14.60;99.90
29765;DHT22;16667;-33.884;151.182;2022-08-11T08:46:21;14.60;99.90
29765;DHT22;16667;-33.884;151.182;2022-08-11T08:48:53;14.60;99.90
29765;DHT22;16667;-33.884;151.182;2022-08-11T08:51:24;14.60;99.90
29765;DHT22;16667;-33.884;151.182;2022-08-11T08:54:09;14.70;99.90
29765;DHT22;16667;-33.884;151.182;2022-08-11T08:56:43;14.70;99.90
29765;DHT22;16667;-33.884;151.182;2022-08-11T08:59:16;14.80;99.90
29765;DHT22;16667;-33.884;151.182;2022-08-11T09:01:52;14.80;99.90
29765;DHT22;16667;-33.884;151.182;2022-08-11T09:04:25;14.80;99.90
29765;DHT22;16667;-33.884;151.182;2022-08-11T09:06:58;14.80;99.90
29765;DHT22;16667;-33.884;151.182;2022-08-11T09:09:30;14.80;99.90
29765;DHT22;16667;-33.884;151.182;2022-08-11T09:12:02;14.80;99.90
29765;DHT22;16667;-33.884;151.182;2022-08-11T09:14:37;14.80;99.90
29765;DHT22;16667;-33.884;151.182;2022-08-11T09:17:25;14.80;99.90
29765;DHT22;16667;-33.884;151.182;2022-08-11T09:19:58;14.80;99.90
29765;DHT22;16667;-33.884;151.182;2022-08-11T09:22:29;14.80;99.90
29765;DHT22;16667;-33.884;151.182;2022-08-11T09:25:17;14.70;99.90
29765;DHT22;16667;-33.884;151.182;2022-08-11T09:28:04;14.70;99.90
29765;DHT22;16667;-33.884;151.182;2022-08-11T09:30:41;14.60;99.90
29765;DHT22;16667;-33.884;151.182;2022-08-11T09:33:14;14.50;99.90
29765;DHT22;16667;-33.884;151.182;2022-08-11T09:35:47;14.40;99.90
29765;DHT22;16667;-33.884;151.182;2022-08-11T09:38:25;14.40;99.90
29765;DHT22;16667;-33.884;151.182;2022-08-11T09:41:27;14.40;99.90
29765;DHT22;16667;-33.884;151.182;2022-08-11T09:43:58;14.40;99.90
29765;DHT22;16667;-33.884;151.182;2022-08-11T09:46:47;14.40;99.90
29765;DHT22;16667;-33.884;151.182;2022-08-11T09:49:19;14.30;99.90
29765;DHT22;16667;-33.884;151.182;2022-08-11T09:51:51;14.30;99.90
29765;DHT22;16667;-33.884;151.182;2022-08-11T09:54:24;14.30;99.90
29765;DHT22;16667;-33.884;151.182;2022-08-11T09:56:55;14.00;99.90
29765;DHT22;16667;-33.884;151.182;2022-08-11T09:59:43;14.30;99.90
29765;DHT22;16667;-33.884;151.182;2022-08-11T10:02:16;14.10;99.90
29765;DHT22;16667;-33.884;151.182;2022-08-11T10:04:48;14.30;99.90
29765;DHT22;16667;-33.884;151.182;2022-08-11T10:07:45;14.40;99.90
29765;DHT22;16667;-33.884;151.182;2022-08-11T10:10:19;14.40;99.90
29765;DHT22;16667;-33.884;151.182;2022-08-11T10:12:54;14.40;99.90
29765;DHT22;16667;-33.884;151.182;2022-08-11T10:15:28;14.40;99.90
29765;DHT22;16667;-33.884;151.182;2022-08-11T10:18:08;14.40;99.90
29765;DHT22;16667;-33.884;151.182;2022-08-11T10:21:01;14.40;99.90
29765;DHT22;16667;-33.884;151.182;2022-08-11T10:23:34;14.40;99.90
29765;DHT22;16667;-33.884;151.182;2022-08-11T10:26:21;14.50;99.90
29765;DHT22;16667;-33.884;151.182;2022-08-11T10:29:09;14.50;99.90
29765;DHT22;16667;-33.884;151.182;2022-08-11T10:31:58;14.50;99.90
29765;DHT22;16667;-33.884;151.182;2022-08-11T10:34:46;14.50;99.90
29765;DHT22;16667;-33.884;151.182;2022-08-11T10:37:18;14.50;99.90
29765;DHT22;16667;-33.884;151.182;2022-08-11T10:39:50;14.50;99.90
29765;DHT22;16667;-33.884;151.182;2022-08-11T10:42:23;14.40;99.90
29765;DHT22;16667;-33.884;151.182;2022-08-11T10:45:10;14.40;99.90
29765;DHT22;16667;-33.884;151.182;2022-08-11T10:47:54;14.40;99.90
29765;DHT22;16667;-33.884;151.182;2022-08-11T10:50:28;14.40;99.90
29765;DHT22;16667;-33.884;151.182;2022-08-11T10:53:15;14.40;99.90
29765;DHT22;16667;-33.884;151.182;2022-08-11T10:56:03;14.40;99.90
29765;DHT22;16667;-33.884;151.182;2022-08-11T10:58:50;14.40;99.90
29765;DHT22;16667;-33.884;151.182;2022-08-11T11:01:26;14.40;99.90
29765;DHT22;16667;-33.884;151.182;2022-08-11T11:04:00;14.40;99.90
29765;DHT22;16667;-33.884;151.182;2022-08-11T11:06:39;14.40;99.90
29765;DHT22;16667;-33.884;151.182;2022-08-11T11:09:14;14.40;99.90
29765;DHT22;16667;-33.884;151.182;2022-08-11T11:11:55;14.40;99.90
29765;DHT22;16667;-33.884;151.182;2022-08-11T11:14:42;14.40;99.90
29765;DHT22;16667;-33.884;151.182;2022-08-11T11:17:34;14.30;99.90
29765;DHT22;16667;-33.884;151.182;2022-08-11T11:20:32;14.30;99.90
29765;DHT22;16667;-33.884;151.182;2022-08-11T11:23:13;14.30;99.90
29765;DHT22;16667;-33.884;151.182;2022-08-11T11:26:25;14.30;99.90
29765;DHT22;16667;-33.884;151.182;2022-08-11T11:29:47;14.30;99.90
29765;DHT22;16667;-33.884;151.182;2022-08-11T11:32:26;14.30;99.90
29765;DHT22;16667;-33.884;151.182;2022-08-11T11:35:30;14.30;99.90
29765;DHT22;16667;-33.884;151.182;2022-08-11T11:38:09;14.30;99.90
29765;DHT22;16667;-33.884;151.182;2022-08-11T11:40:40;14.30;99.90
29765;DHT22;16667;-33.884;151.182;2022-08-11T11:43:34;14.20;99.90
29765;DHT22;16667;-33.884;151.182;2022-08-11T11:46:06;14.20;99.90
29765;DHT22;16667;-33.884;151.182;2022-08-11T11:48:41;14.20;99.90
29765;DHT22;16667;-33.884;151.182;2022-08-11T11:51:13;14.20;99.90
29765;DHT22;16667;-33.884;151.182;2022-08-11T11:53:47;14.20;99.90
29765;DHT22;16667;-33.884;151.182;2022-08-11T11:56:19;14.20;99.90
29765;DHT22;16667;-33.884;151.182;2022-08-11T11:58:57;14.20;99.90
29765;DHT22;16667;-33.884;151.182;2022-08-11T12:01:45;14.20;99.90
29765;DHT22;16667;-33.884;151.182;2022-08-11T12:04:20;14.20;99.90
29765;DHT22;16667;-33.884;151.182;2022-08-11T12:06:51;14.20;99.90
29765;DHT22;16667;-33.884;151.182;2022-08-11T12:09:50;14.20;99.90
29765;DHT22;16667;-33.884;151.182;2022-08-11T12:12:21;14.20;99.90
29765;DHT22;16667;-33.884;151.182;2022-08-11T12:15:09;14.20;99.90
29765;DHT22;16667;-33.884;151.182;2022-08-11T12:17:49;14.20;99.90
29765;DHT22;16667;-33.884;151.182;2022-08-11T12:20:20;13.90;99.90
29765;DHT22;16667;-33.884;151.182;2022-08-11T12:22:51;14.10;99.90
29765;DHT22;16667;-33.884;151.182;2022-08-11T12:25:42;14.10;99.90
29765;DHT22;16667;-33.884;151.182;2022-08-11T12:28:31;14.10;99.90
29765;DHT22;16667;-33.884;151.182;2022-08-11T12:31:04;14.10;99.90
29765;DHT22;16667;-33.884;151.182;2022-08-11T12:33:37;14.10;99.90
29765;DHT22;16667;-33.884;151.182;2022-08-11T12:36:09;13.00;99.90
29765;DHT22;16667;-33.884;151.182;2022-08-11T12:38:45;14.10;99.90
29765;DHT22;16667;-33.884;151.182;2022-08-11T12:41:19;14.10;99.90
29765;DHT22;16667;-33.884;151.182;2022-08-11T12:44:12;14.10;99.90
29765;DHT22;16667;-33.884;151.182;2022-08-11T12:47:00;14.00;99.90
29765;DHT22;16667;-33.884;151.182;2022-08-11T12:49:36;14.00;99.90
29765;DHT22;16667;-33.884;151.182;2022-08-11T12:52:28;14.00;99.90
29765;DHT22;16667;-33.884;151.182;2022-08-11T12:55:06;14.00;99.90
29765;DHT22;16667;-33.884;151.182;2022-08-11T12:57:44;14.00;99.90
29765;DHT22;16667;-33.884;151.182;2022-08-11T13:00:32;14.00;99.90
29765;DHT22;16667;-33.884;151.182;2022-08-11T13:03:20;13.90;99.90
29765;DHT22;16667;-33.884;151.182;2022-08-11T13:06:08;13.90;99.90
29765;DHT22;16667;-33.884;151.182;2022-08-11T13:08:47;13.90;99.90
29765;DHT22;16667;-33.884;151.182;2022-08-11T13:11:30;13.90;99.90
29765;DHT22;16667;-33.884;151.182;2022-08-11T13:14:20;13.90;99.90
29765;DHT22;16667;-33.884;151.182;2022-08-11T13:16:51;13.90;99.90
29765;DHT22;16667;-33.884;151.182;2022-08-11T13:19:42;13.80;99.90
29765;DHT22;16667;-33.884;151.182;2022-08-11T13:22:19;13.80;99.90
29765;DHT22;16667;-33.884;151.182;2022-08-11T13:24:52;13.80;99.90
29765;DHT22;16667;-33.884;151.182;2022-08-11T13:27:38;13.80;99.90
29765;DHT22;16667;-33.884;151.182;2022-08-11T13:30:14;13.80;99.90
29765;DHT22;16667;-33.884;151.182;2022-08-11T13:33:01;13.80;99.90
29765;DHT22;16667;-33.884;151.182;2022-08-11T13:35:33;13.80;99.90
29765;DHT22;16667;-33.884;151.182;2022-08-11T13:38:17;13.80;99.90
29765;DHT22;16667;-33.884;151.182;2022-08-11T13:40:51;13.80;99.90
29765;DHT22;16667;-33.884;151.182;2022-08-11T13:43:23;13.70;99.90
29765;DHT22;16667;-33.884;151.182;2022-08-11T13:45:57;13.70;99.90
29765;DHT22;16667;-33.884;151.182;2022-08-11T13:48:44;13.70;99.90
29765;DHT22;16667;-33.884;151.182;2022-08-11T13:51:15;13.70;99.90
29765;DHT22;16667;-33.884;151.182;2022-08-11T13:54:08;13.80;99.90
29765;DHT22;16667;-33.884;151.182;2022-08-11T13:56:43;13.80;99.90
29765;DHT22;16667;-33.884;151.182;2022-08-11T13:59:21;13.70;99.90
29765;DHT22;16667;-33.884;151.182;2022-08-11T14:01:57;13.70;99.90
29765;DHT22;16667;-33.884;151.182;2022-08-11T14:04:40;13.80;99.90
29765;DHT22;16667;-33.884;151.182;2022-08-11T14:07:19;13.70;99.90
29765;DHT22;16667;-33.884;151.182;2022-08-11T14:09:55;13.70;99.90
29765;DHT22;16667;-33.884;151.182;2022-08-11T14:12:28;13.70;99.90
29765;DHT22;16667;-33.884;151.182;2022-08-11T14:15:18;13.80;99.90
29765;DHT22;16667;-33.884;151.182;2022-08-11T14:17:53;13.70;99.90
29765;DHT22;16667;-33.884;151.182;2022-08-11T14:20:29;13.70;99.90
29765;DHT22;16667;-33.884;151.182;2022-08-11T14:23:25;13.70;99.90
29765;DHT22;16667;-33.884;151.182;2022-08-11T14:25:56;13.70;99.90
29765;DHT22;16667;-33.884;151.182;2022-08-11T14:28:43;13.70;99.90
29765;DHT22;16667;-33.884;151.182;2022-08-11T14:31:15;13.70;99.90
29765;DHT22;16667;-33.884;151.182;2022-08-11T14:33:49;13.70;99.90
29765;DHT22;16667;-33.884;151.182;2022-08-11T14:36:24;13.70;99.90
29765;DHT22;16667;-33.884;151.182;2022-08-11T14:38:56;13.60;99.90
29765;DHT22;16667;-33.884;151.182;2022-08-11T14:41:27;13.70;99.90
29765;DHT22;16667;-33.884;151.182;2022-08-11T14:44:14;13.70;99.90
29765;DHT22;16667;-33.884;151.182;2022-08-11T14:47:01;13.70;99.90
29765;DHT22;16667;-33.884;151.182;2022-08-11T14:49:38;13.70;99.90
29765;DHT22;16667;-33.884;151.182;2022-08-11T14:52:10;13.70;99.90
29765;DHT22;16667;-33.884;151.182;2022-08-11T14:54:44;13.70;99.90
29765;DHT22;16667;-33.884;151.182;2022-08-11T14:57:32;13.80;99.90
29765;DHT22;16667;-33.884;151.182;2022-08-11T15:00:06;13.80;99.90
29765;DHT22;16667;-33.884;151.182;2022-08-11T15:02:40;13.80;99.90
29765;DHT22;16667;-33.884;151.182;2022-08-11T15:05:29;13.80;99.90
29765;DHT22;16667;-33.884;151.182;2022-08-11T15:08:01;13.90;99.90
29765;DHT22;16667;-33.884;151.182;2022-08-11T15:10:32;13.90;99.90
29765;DHT22;16667;-33.884;151.182;2022-08-11T15:13:04;13.90;99.90
29765;DHT22;16667;-33.884;151.182;2022-08-11T15:15:35;13.90;99.90
29765;DHT22;16667;-33.884;151.182;2022-08-11T15:18:23;13.90;99.90
29765;DHT22;16667;-33.884;151.182;2022-08-11T15:20:57;13.80;99.90
29765;DHT22;16667;-33.884;151.182;2022-08-11T15:23:49;13.80;99.90
29765;DHT22;16667;-33.884;151.182;2022-08-11T15:26:38;13.80;99.90
29765;DHT22;16667;-33.884;151.182;2022-08-11T15:29:27;13.80;99.90
29765;DHT22;16667;-33.884;151.182;2022-08-11T15:32:17;13.80;99.90
29765;DHT22;16667;-33.884;151.182;2022-08-11T15:35:05;13.80;99.90
29765;DHT22;16667;-33.884;151.182;2022-08-11T15:37:57;13.70;99.90
29765;DHT22;16667;-33.884;151.182;2022-08-11T15:40:32;13.60;99.90
29765;DHT22;16667;-33.884;151.182;2022-08-11T15:43:22;13.60;99.90
29765;DHT22;16667;-33.884;151.182;2022-08-11T15:46:13;13.60;99.90
29765;DHT22;16667;-33.884;151.182;2022-08-11T15:48:47;13.50;99.90
29765;DHT22;16667;-33.884;151.182;2022-08-11T15:51:33;13.50;99.90
29765;DHT22;16667;-33.884;151.182;2022-08-11T15:54:10;13.40;99.90
29765;DHT22;16667;-33.884;151.182;2022-08-11T15:56:46;13.40;99.90
29765;DHT22;16667;-33.884;151.182;2022-08-11T15:59:19;13.30;99.90
29765;DHT22;16667;-33.884;151.182;2022-08-11T16:02:08;13.30;99.90
29765;DHT22;16667;-33.884;151.182;2022-08-11T16:04:58;13.20;99.90
29765;DHT22;16667;-33.884;151.182;2022-08-11T16:07:35;13.20;99.90
29765;DHT22;16667;-33.884;151.182;2022-08-11T16:10:10;13.20;99.90
29765;DHT22;16667;-33.884;151.182;2022-08-11T16:12:49;13.10;99.90
29765;DHT22;16667;-33.884;151.182;2022-08-11T16:15:46;13.10;99.90
29765;DHT22;16667;-33.884;151.182;2022-08-11T16:18:38;13.10;99.90
29765;DHT22;16667;-33.884;151.182;2022-08-11T16:21:13;13.10;99.90
29765;DHT22;16667;-33.884;151.182;2022-08-11T16:23:46;13.00;99.90
29765;DHT22;16667;-33.884;151.182;2022-08-11T16:26:20;13.00;99.90
29765;DHT22;16667;-33.884;151.182;2022-08-11T16:28:54;13.00;99.90
29765;DHT22;16667;-33.884;151.182;2022-08-11T16:31:28;13.00;99.90
29765;DHT22;16667;-33.884;151.182;2022-08-11T16:34:00;13.00;99.90
29765;DHT22;16667;-33.884;151.182;2022-08-11T16:36:34;13.00;99.90
29765;DHT22;16667;-33.884;151.182;2022-08-11T16:39:32;12.90;99.90
29765;DHT22;16667;-33.884;151.182;2022-08-11T16:42:06;12.90;99.90
29765;DHT22;16667;-33.884;151.182;2022-08-11T16:44:54;12.90;99.90
29765;DHT22;16667;-33.884;151.182;2022-08-11T16:47:43;12.90;99.90
29765;DHT22;16667;-33.884;151.182;2022-08-11T16:50:17;12.90;99.90
29765;DHT22;16667;-33.884;151.182;2022-08-11T16:52:47;12.90;99.90
29765;DHT22;16667;-33.884;151.182;2022-08-11T16:55:19;12.80;99.90
29765;DHT22;16667;-33.884;151.182;2022-08-11T16:57:51;12.90;99.90
29765;DHT22;16667;-33.884;151.182;2022-08-11T17:00:38;12.90;99.90
29765;DHT22;16667;-33.884;151.182;2022-08-11T17:03:10;13.00;99.90
29765;DHT22;16667;-33.884;151.182;2022-08-11T17:05:59;13.00;99.90
29765;DHT22;16667;-33.884;151.182;2022-08-11T17:08:47;13.00;99.90